sensor_id;sensor_type;location;lat;lon;timestamp;P1;durP1;ratioP1;P2;durP2;ratioP2
30000;SDS011;16845;48.670;9.000;2023-02-14T00:00:07;47.25;;;26.27;;
30000;SDS011;16845;48.670;9.000;2023-02-14T00:02:35;61.45;;;29.75;;
30000;SDS011;16845;48.670;9.000;2023-02-14T00:05:04;49.95;;;27.98;;
30000;SDS011;16845;48.670;9.000;2023-02-14T00:07:33;51.78;;;28.73;;
30000;SDS011;16845;48.670;9.000;2023-02-14T00:10:01;62.20;;;31.70;;
30000;SDS011;16845;48.670;9.000;2023-02-14T00:12:29;60.25;;;32.47;;
30000;SDS011;16845;48.670;9.000;2023-02-14T00:14:57;73.18;;;37.33;;
30000;SDS011;16845;48.670;9.000;2023-02-14T00:17:48;67.95;;;36.72;;
30000;SDS011;16845;48.670;9.000;2023-02-14T00:20:16;68.57;;;33.00;;
30000;SDS011;16845;48.670;9.000;2023-02-14T00:22:46;65.28;;;35.38;;
30000;SDS011;16845;48.670;9.000;2023-02-14T00:25:14;60.83;;;32.05;;
30000;SDS011;16845;48.670;9.000;2023-02-14T00:27:42;67.75;;;33.97;;
30000;SDS011;16845;48.670;9.000;2023-02-14T00:30:11;65.25;;;32.03;;
30000;SDS011;16845;48.670;9.000;2023-02-14T00:32:40;73.00;;;36.20;;
30000;SDS011;16845;48.670;9.000;2023-02-14T00:35:09;68.70;;;32.45;;
30000;SDS011;16845;48.670;9.000;2023-02-14T00:37:37;66.55;;;34.10;;
30000;SDS011;16845;48.670;9.000;2023-02-14T00:40:07;64.78;;;34.40;;
30000;SDS011;16845;48.670;9.000;2023-02-14T00:42:35;71.68;;;36.70;;
30000;SDS011;16845;48.670;9.000;2023-02-14T00:45:03;73.25;;;36.15;;
30000;SDS011;16845;48.670;9.000;2023-02-14T00:47:32;68.78;;;35.13;;
30000;SDS011;16845;48.670;9.000;2023-02-14T00:49:59;79.28;;;38.55;;
30000;SDS011;16845;48.670;9.000;2023-02-14T00:52:29;72.78;;;38.10;;
30000;SDS011;16845;48.670;9.000;2023-02-14T00:54:57;70.95;;;36.72;;
30000;SDS011;16845;48.670;9.000;2023-02-14T00:57:27;70.50;;;34.25;;
30000;SDS011;16845;48.670;9.000;2023-02-14T00:59:55;75.03;;;35.88;;
30000;SDS011;16845;48.670;9.000;2023-02-14T01:02:23;63.58;;;33.65;;
30000;SDS011;16845;48.670;9.000;2023-02-14T01:04:50;69.30;;;35.35;;
30000;SDS011;16845;48.670;9.000;2023-02-14T01:07:18;73.93;;;36.65;;
30000;SDS011;16845;48.670;9.000;2023-02-14T01:09:47;62.65;;;32.03;;
30000;SDS011;16845;48.670;9.000;2023-02-14T01:12:15;72.45;;;36.83;;
30000;SDS011;16845;48.670;9.000;2023-02-14T01:14:45;67.45;;;35.30;;
30000;SDS011;16845;48.670;9.000;2023-02-14T01:17:13;65.03;;;34.10;;
30000;SDS011;16845;48.670;9.000;2023-02-14T01:19:40;62.45;;;31.95;;
30000;SDS011;16845;48.670;9.000;2023-02-14T01:22:08;52.15;;;28.25;;
30000;SDS011;16845;48.670;9.000;2023-02-14T01:24:36;43.28;;;24.55;;
30000;SDS011;16845;48.670;9.000;2023-02-14T01:27:04;45.63;;;24.45;;
30000;SDS011;16845;48.670;9.000;2023-02-14T01:29:32;47.28;;;25.08;;
30000;SDS011;16845;48.670;9.000;2023-02-14T01:32:01;39.65;;;22.63;;
30000;SDS011;16845;48.670;9.000;2023-02-14T01:34:29;35.95;;;21.13;;
30000;SDS011;16845;48.670;9.000;2023-02-14T01:36:57;41.45;;;24.13;;
30000;SDS011;16845;48.670;9.000;2023-02-14T01:39:25;39.53;;;22.55;;
30000;SDS011;16845;48.670;9.000;2023-02-14T01:41:53;38.28;;;22.08;;
30000;SDS011;16845;48.670;9.000;2023-02-14T01:47:23;40.97;;;22.70;;
30000;SDS011;16845;48.670;9.000;2023-02-14T01:49:55;41.70;;;23.42;;
30000;SDS011;16845;48.670;9.000;2023-02-14T01:52:28;41.80;;;21.52;;
30000;SDS011;16845;48.670;9.000;2023-02-14T01:55:00;35.95;;;21.40;;
30000;SDS011;16845;48.670;9.000;2023-02-14T01:57:32;40.55;;;23.13;;
30000;SDS011;16845;48.670;9.000;2023-02-14T02:00:04;43.75;;;23.65;;
30000;SDS011;16845;48.670;9.000;2023-02-14T02:02:52;38.53;;;21.70;;
30000;SDS011;16845;48.670;9.000;2023-02-14T02:05:21;39.08;;;21.83;;
30000;SDS011;16845;48.670;9.000;2023-02-14T02:07:50;41.65;;;22.98;;
30000;SDS011;16845;48.670;9.000;2023-02-14T02:10:19;39.35;;;21.25;;
30000;SDS011;16845;48.670;9.000;2023-02-14T02:12:47;37.05;;;22.10;;
30000;SDS011;16845;48.670;9.000;2023-02-14T02:15:17;43.63;;;24.38;;
30000;SDS011;16845;48.670;9.000;2023-02-14T02:17:47;39.95;;;22.42;;
30000;SDS011;16845;48.670;9.000;2023-02-14T02:23:25;40.33;;;23.42;;
30000;SDS011;16845;48.670;9.000;2023-02-14T02:26:27;38.80;;;21.03;;
30000;SDS011;16845;48.670;9.000;2023-02-14T02:32:26;39.17;;;22.88;;
30000;SDS011;16845;48.670;9.000;2023-02-14T02:38:16;34.35;;;21.00;;
30000;SDS011;16845;48.670;9.000;2023-02-14T02:40:57;38.20;;;22.58;;
30000;SDS011;16845;48.670;9.000;2023-02-14T02:43:34;41.20;;;22.50;;
30000;SDS011;16845;48.670;9.000;2023-02-14T02:46:13;49.50;;;27.20;;
30000;SDS011;16845;48.670;9.000;2023-02-14T02:49:07;58.03;;;30.38;;
30000;SDS011;16845;48.670;9.000;2023-02-14T02:51:43;49.72;;;28.00;;
30000;SDS011;16845;48.670;9.000;2023-02-14T02:54:36;42.65;;;24.10;;
30000;SDS011;16845;48.670;9.000;2023-02-14T02:57:11;44.80;;;23.48;;
30000;SDS011;16845;48.670;9.000;2023-02-14T02:59:41;37.13;;;22.85;;
30000;SDS011;16845;48.670;9.000;2023-02-14T03:02:13;39.85;;;22.35;;
30000;SDS011;16845;48.670;9.000;2023-02-14T03:04:47;39.45;;;22.88;;
30000;SDS011;16845;48.670;9.000;2023-02-14T03:07:29;49.03;;;26.90;;
30000;SDS011;16845;48.670;9.000;2023-02-14T03:10:05;56.60;;;29.48;;
30000;SDS011;16845;48.670;9.000;2023-02-14T03:15:38;64.65;;;32.78;;
30000;SDS011;16845;48.670;9.000;2023-02-14T03:18:17;69.82;;;35.85;;
30000;SDS011;16845;48.670;9.000;2023-02-14T03:21:05;69.63;;;33.17;;
30000;SDS011;16845;48.670;9.000;2023-02-14T03:23:40;67.05;;;33.10;;
30000;SDS011;16845;48.670;9.000;2023-02-14T03:28:45;56.80;;;28.92;;
30000;SDS011;16845;48.670;9.000;2023-02-14T03:31:21;51.22;;;27.38;;
30000;SDS011;16845;48.670;9.000;2023-02-14T03:33:55;54.50;;;28.15;;
30000;SDS011;16845;48.670;9.000;2023-02-14T03:36:28;54.80;;;28.13;;
30000;SDS011;16845;48.670;9.000;2023-02-14T03:39:02;54.17;;;28.48;;
30000;SDS011;16845;48.670;9.000;2023-02-14T03:41:37;49.17;;;25.92;;
30000;SDS011;16845;48.670;9.000;2023-02-14T03:44:10;52.90;;;26.33;;
30000;SDS011;16845;48.670;9.000;2023-02-14T03:46:43;57.42;;;28.00;;
30000;SDS011;16845;48.670;9.000;2023-02-14T03:49:16;46.13;;;26.83;;
30000;SDS011;16845;48.670;9.000;2023-02-14T03:54:25;49.63;;;27.08;;
30000;SDS011;16845;48.670;9.000;2023-02-14T03:56:55;58.83;;;29.02;;
30000;SDS011;16845;48.670;9.000;2023-02-14T03:59:27;53.63;;;28.77;;
30000;SDS011;16845;48.670;9.000;2023-02-14T04:01:56;54.38;;;26.73;;
30000;SDS011;16845;48.670;9.000;2023-02-14T04:04:33;47.28;;;27.63;;
30000;SDS011;16845;48.670;9.000;2023-02-14T04:07:07;53.83;;;27.77;;
30000;SDS011;16845;48.670;9.000;2023-02-14T04:09:38;59.42;;;30.30;;
30000;SDS011;16845;48.670;9.000;2023-02-14T04:12:06;54.60;;;28.92;;
30000;SDS011;16845;48.670;9.000;2023-02-14T04:14:34;61.17;;;29.63;;
30000;SDS011;16845;48.670;9.000;2023-02-14T04:17:03;57.58;;;29.98;;
30000;SDS011;16845;48.670;9.000;2023-02-14T04:19:49;62.65;;;31.23;;
30000;SDS011;16845;48.670;9.000;2023-02-14T04:22:17;54.33;;;28.17;;
30000;SDS011;16845;48.670;9.000;2023-02-14T04:24:46;52.38;;;27.02;;
30000;SDS011;16845;48.670;9.000;2023-02-14T04:27:14;57.35;;;30.08;;
30000;SDS011;16845;48.670;9.000;2023-02-14T04:29:43;55.78;;;28.05;;
30000;SDS011;16845;48.670;9.000;2023-02-14T04:32:13;53.42;;;28.50;;
30000;SDS011;16845;48.670;9.000;2023-02-14T04:34:43;54.17;;;27.50;;
30000;SDS011;16845;48.670;9.000;2023-02-14T04:37:11;48.83;;;27.95;;
30000;SDS011;16845;48.670;9.000;2023-02-14T04:39:39;53.92;;;28.05;;
30000;SDS011;16845;48.670;9.000;2023-02-14T04:42:08;55.85;;;29.33;;
30000;SDS011;16845;48.670;9.000;2023-02-14T04:44:36;51.38;;;26.58;;
30000;SDS011;16845;48.670;9.000;2023-02-14T04:47:04;53.05;;;28.58;;
30000;SDS011;16845;48.670;9.000;2023-02-14T04:49:33;57.22;;;30.65;;
30000;SDS011;16845;48.670;9.000;2023-02-14T04:52:01;55.63;;;29.90;;
30000;SDS011;16845;48.670;9.000;2023-02-14T04:54:30;54.20;;;28.80;;
30000;SDS011;16845;48.670;9.000;2023-02-14T04:56:58;56.58;;;28.95;;
30000;SDS011;16845;48.670;9.000;2023-02-14T04:59:27;48.60;;;27.75;;
30000;SDS011;16845;48.670;9.000;2023-02-14T05:01:55;47.28;;;26.35;;
30000;SDS011;16845;48.670;9.000;2023-02-14T05:04:23;54.97;;;28.55;;
30000;SDS011;16845;48.670;9.000;2023-02-14T05:06:51;59.00;;;30.27;;
30000;SDS011;16845;48.670;9.000;2023-02-14T05:09:19;50.70;;;27.52;;
30000;SDS011;16845;48.670;9.000;2023-02-14T05:11:47;58.55;;;27.95;;
30000;SDS011;16845;48.670;9.000;2023-02-14T05:14:15;55.05;;;27.35;;
30000;SDS011;16845;48.670;9.000;2023-02-14T05:16:44;50.70;;;27.02;;
30000;SDS011;16845;48.670;9.000;2023-02-14T05:19:12;52.72;;;27.10;;
30000;SDS011;16845;48.670;9.000;2023-02-14T05:21:40;52.15;;;26.63;;
30000;SDS011;16845;48.670;9.000;2023-02-14T05:24:08;48.05;;;26.55;;
30000;SDS011;16845;48.670;9.000;2023-02-14T05:26:36;49.80;;;26.83;;
30000;SDS011;16845;48.670;9.000;2023-02-14T05:29:04;60.58;;;29.30;;
30000;SDS011;16845;48.670;9.000;2023-02-14T05:31:32;56.70;;;30.00;;
30000;SDS011;16845;48.670;9.000;2023-02-14T05:34:02;55.33;;;28.00;;
30000;SDS011;16845;48.670;9.000;2023-02-14T05:36:30;51.08;;;26.65;;
30000;SDS011;16845;48.670;9.000;2023-02-14T05:38:58;47.45;;;27.77;;
30000;SDS011;16845;48.670;9.000;2023-02-14T05:41:26;48.35;;;27.63;;
30000;SDS011;16845;48.670;9.000;2023-02-14T05:43:53;52.25;;;27.55;;
30000;SDS011;16845;48.670;9.000;2023-02-14T05:46:21;52.90;;;29.17;;
30000;SDS011;16845;48.670;9.000;2023-02-14T05:48:49;53.97;;;27.38;;
30000;SDS011;16845;48.670;9.000;2023-02-14T05:51:19;45.83;;;26.67;;
30000;SDS011;16845;48.670;9.000;2023-02-14T05:53:47;51.65;;;26.75;;
30000;SDS011;16845;48.670;9.000;2023-02-14T05:56:14;50.38;;;27.02;;
30000;SDS011;16845;48.670;9.000;2023-02-14T05:58:42;50.50;;;26.33;;
30000;SDS011;16845;48.670;9.000;2023-02-14T06:01:10;45.28;;;25.10;;
30000;SDS011;16845;48.670;9.000;2023-02-14T06:03:38;46.65;;;25.17;;
30000;SDS011;16845;48.670;9.000;2023-02-14T06:06:06;48.35;;;26.48;;
30000;SDS011;16845;48.670;9.000;2023-02-14T06:08:35;45.13;;;25.98;;
30000;SDS011;16845;48.670;9.000;2023-02-14T06:11:03;49.03;;;25.42;;
30000;SDS011;16845;48.670;9.000;2023-02-14T06:13:31;49.00;;;27.40;;
30000;SDS011;16845;48.670;9.000;2023-02-14T06:15:59;45.80;;;26.80;;
30000;SDS011;16845;48.670;9.000;2023-02-14T06:18:29;56.67;;;29.52;;
30000;SDS011;16845;48.670;9.000;2023-02-14T06:20:57;62.78;;;30.20;;
30000;SDS011;16845;48.670;9.000;2023-02-14T06:23:25;63.25;;;32.30;;
30000;SDS011;16845;48.670;9.000;2023-02-14T06:25:54;56.33;;;29.63;;
30000;SDS011;16845;48.670;9.000;2023-02-14T06:28:22;58.88;;;27.60;;
30000;SDS011;16845;48.670;9.000;2023-02-14T06:30:50;53.92;;;29.50;;
30000;SDS011;16845;48.670;9.000;2023-02-14T06:33:18;58.95;;;28.25;;
30000;SDS011;16845;48.670;9.000;2023-02-14T06:35:46;54.50;;;28.27;;
30000;SDS011;16845;48.670;9.000;2023-02-14T06:38:14;67.43;;;33.92;;
30000;SDS011;16845;48.670;9.000;2023-02-14T06:40:42;64.93;;;31.83;;
30000;SDS011;16845;48.670;9.000;2023-02-14T06:43:11;61.33;;;32.58;;
30000;SDS011;16845;48.670;9.000;2023-02-14T06:45:39;56.17;;;29.73;;
30000;SDS011;16845;48.670;9.000;2023-02-14T06:48:08;54.25;;;28.80;;
30000;SDS011;16845;48.670;9.000;2023-02-14T06:50:36;56.63;;;28.63;;
30000;SDS011;16845;48.670;9.000;2023-02-14T06:53:04;56.85;;;29.10;;
30000;SDS011;16845;48.670;9.000;2023-02-14T06:55:32;64.65;;;32.42;;
30000;SDS011;16845;48.670;9.000;2023-02-14T06:58:00;64.18;;;30.20;;
30000;SDS011;16845;48.670;9.000;2023-02-14T07:00:29;57.85;;;30.55;;
30000;SDS011;16845;48.670;9.000;2023-02-14T07:02:57;59.20;;;29.52;;
30000;SDS011;16845;48.670;9.000;2023-02-14T07:05:25;61.53;;;30.23;;
30000;SDS011;16845;48.670;9.000;2023-02-14T07:07:53;53.17;;;28.38;;
30000;SDS011;16845;48.670;9.000;2023-02-14T07:10:21;51.42;;;28.42;;
30000;SDS011;16845;48.670;9.000;2023-02-14T07:12:49;53.25;;;28.23;;
30000;SDS011;16845;48.670;9.000;2023-02-14T07:15:17;52.45;;;28.83;;
30000;SDS011;16845;48.670;9.000;2023-02-14T07:17:47;52.80;;;27.92;;
30000;SDS011;16845;48.670;9.000;2023-02-14T07:20:14;58.30;;;28.80;;
30000;SDS011;16845;48.670;9.000;2023-02-14T07:22:43;53.28;;;28.80;;
30000;SDS011;16845;48.670;9.000;2023-02-14T07:25:11;47.67;;;26.63;;
30000;SDS011;16845;48.670;9.000;2023-02-14T07:27:39;55.40;;;29.10;;
30000;SDS011;16845;48.670;9.000;2023-02-14T07:30:07;47.95;;;26.75;;
30000;SDS011;16845;48.670;9.000;2023-02-14T07:32:36;53.90;;;27.98;;
30000;SDS011;16845;48.670;9.000;2023-02-14T07:35:07;49.40;;;27.17;;
30000;SDS011;16845;48.670;9.000;2023-02-14T07:37:35;49.17;;;26.50;;
30000;SDS011;16845;48.670;9.000;2023-02-14T07:40:03;50.67;;;27.20;;
30000;SDS011;16845;48.670;9.000;2023-02-14T07:42:40;50.08;;;27.60;;
30000;SDS011;16845;48.670;9.000;2023-02-14T07:45:08;53.25;;;28.55;;
30000;SDS011;16845;48.670;9.000;2023-02-14T07:47:47;58.65;;;29.30;;
30000;SDS011;16845;48.670;9.000;2023-02-14T07:50:17;51.15;;;28.10;;
30000;SDS011;16845;48.670;9.000;2023-02-14T07:52:45;51.45;;;27.15;;
30000;SDS011;16845;48.670;9.000;2023-02-14T07:55:13;50.97;;;26.95;;
30000;SDS011;16845;48.670;9.000;2023-02-14T07:57:41;51.05;;;26.10;;
30000;SDS011;16845;48.670;9.000;2023-02-14T08:00:10;46.55;;;26.33;;
30000;SDS011;16845;48.670;9.000;2023-02-14T08:02:39;57.70;;;30.92;;
30000;SDS011;16845;48.670;9.000;2023-02-14T08:05:07;57.97;;;29.23;;
30000;SDS011;16845;48.670;9.000;2023-02-14T08:07:37;53.50;;;30.75;;
30000;SDS011;16845;48.670;9.000;2023-02-14T08:10:06;53.72;;;28.73;;
30000;SDS011;16845;48.670;9.000;2023-02-14T08:12:36;56.03;;;32.05;;
30000;SDS011;16845;48.670;9.000;2023-02-14T08:15:21;49.22;;;28.27;;
30000;SDS011;16845;48.670;9.000;2023-02-14T08:18:07;53.53;;;29.30;;
30000;SDS011;16845;48.670;9.000;2023-02-14T08:20:35;53.85;;;28.75;;
30000;SDS011;16845;48.670;9.000;2023-02-14T08:23:04;51.30;;;29.60;;
30000;SDS011;16845;48.670;9.000;2023-02-14T08:25:32;57.45;;;30.27;;
30000;SDS011;16845;48.670;9.000;2023-02-14T08:28:00;51.15;;;28.13;;
30000;SDS011;16845;48.670;9.000;2023-02-14T08:30:28;50.58;;;28.17;;
30000;SDS011;16845;48.670;9.000;2023-02-14T08:32:57;47.58;;;26.77;;
30000;SDS011;16845;48.670;9.000;2023-02-14T08:35:25;45.72;;;25.27;;
30000;SDS011;16845;48.670;9.000;2023-02-14T08:37:53;42.88;;;24.25;;
30000;SDS011;16845;48.670;9.000;2023-02-14T08:40:22;38.33;;;21.73;;
30000;SDS011;16845;48.670;9.000;2023-02-14T08:42:50;38.25;;;21.63;;
30000;SDS011;16845;48.670;9.000;2023-02-14T08:45:18;37.00;;;19.95;;
30000;SDS011;16845;48.670;9.000;2023-02-14T08:47:47;34.03;;;21.02;;
30000;SDS011;16845;48.670;9.000;2023-02-14T08:50:15;36.67;;;22.45;;
30000;SDS011;16845;48.670;9.000;2023-02-14T08:52:44;39.78;;;21.65;;
30000;SDS011;16845;48.670;9.000;2023-02-14T08:55:12;32.17;;;20.60;;
30000;SDS011;16845;48.670;9.000;2023-02-14T08:57:41;34.58;;;19.80;;
30000;SDS011;16845;48.670;9.000;2023-02-14T09:00:10;29.23;;;18.88;;
30000;SDS011;16845;48.670;9.000;2023-02-14T09:02:38;28.83;;;18.23;;
30000;SDS011;16845;48.670;9.000;2023-02-14T09:05:06;29.08;;;18.52;;
30000;SDS011;16845;48.670;9.000;2023-02-14T09:07:35;30.60;;;18.23;;
30000;SDS011;16845;48.670;9.000;2023-02-14T09:10:04;32.45;;;19.38;;
30000;SDS011;16845;48.670;9.000;2023-02-14T09:12:33;27.42;;;18.05;;
30000;SDS011;16845;48.670;9.000;2023-02-14T09:15:02;30.08;;;17.00;;
30000;SDS011;16845;48.670;9.000;2023-02-14T09:17:30;27.65;;;16.75;;
30000;SDS011;16845;48.670;9.000;2023-02-14T09:19:59;28.48;;;17.83;;
30000;SDS011;16845;48.670;9.000;2023-02-14T09:22:27;30.45;;;18.95;;
30000;SDS011;16845;48.670;9.000;2023-02-14T09:24:55;26.45;;;16.05;;
30000;SDS011;16845;48.670;9.000;2023-02-14T09:27:23;31.77;;;17.70;;
30000;SDS011;16845;48.670;9.000;2023-02-14T09:29:51;27.42;;;17.30;;
30000;SDS011;16845;48.670;9.000;2023-02-14T09:32:21;28.52;;;18.08;;
30000;SDS011;16845;48.670;9.000;2023-02-14T09:34:48;27.02;;;17.38;;
30000;SDS011;16845;48.670;9.000;2023-02-14T09:37:16;28.35;;;18.33;;
30000;SDS011;16845;48.670;9.000;2023-02-14T09:39:44;27.92;;;18.90;;
30000;SDS011;16845;48.670;9.000;2023-02-14T09:42:26;25.33;;;17.30;;
30000;SDS011;16845;48.670;9.000;2023-02-14T09:45:08;29.52;;;19.13;;
30000;SDS011;16845;48.670;9.000;2023-02-14T09:47:41;32.65;;;20.55;;
30000;SDS011;16845;48.670;9.000;2023-02-14T09:50:15;30.00;;;17.95;;
30000;SDS011;16845;48.670;9.000;2023-02-14T09:52:48;28.35;;;17.73;;
30000;SDS011;16845;48.670;9.000;2023-02-14T09:55:20;29.05;;;17.83;;
30000;SDS011;16845;48.670;9.000;2023-02-14T09:57:56;25.17;;;17.13;;
30000;SDS011;16845;48.670;9.000;2023-02-14T10:00:33;24.65;;;15.52;;
30000;SDS011;16845;48.670;9.000;2023-02-14T10:03:11;29.23;;;17.85;;
30000;SDS011;16845;48.670;9.000;2023-02-14T10:05:53;31.73;;;17.20;;
30000;SDS011;16845;48.670;9.000;2023-02-14T10:08:30;25.98;;;16.17;;
30000;SDS011;16845;48.670;9.000;2023-02-14T10:11:09;27.25;;;16.38;;
30000;SDS011;16845;48.670;9.000;2023-02-14T10:13:42;21.27;;;15.15;;
30000;SDS011;16845;48.670;9.000;2023-02-14T10:16:15;22.95;;;15.38;;
30000;SDS011;16845;48.670;9.000;2023-02-14T10:18:54;25.20;;;15.82;;
30000;SDS011;16845;48.670;9.000;2023-02-14T10:21:27;20.40;;;13.75;;
30000;SDS011;16845;48.670;9.000;2023-02-14T10:23:59;25.92;;;16.15;;
30000;SDS011;16845;48.670;9.000;2023-02-14T10:26:32;21.10;;;15.18;;
30000;SDS011;16845;48.670;9.000;2023-02-14T10:29:04;22.08;;;14.13;;
30000;SDS011;16845;48.670;9.000;2023-02-14T10:31:38;26.27;;;14.93;;
30000;SDS011;16845;48.670;9.000;2023-02-14T10:36:57;19.15;;;13.65;;
30000;SDS011;16845;48.670;9.000;2023-02-14T10:39:55;23.95;;;15.85;;
30000;SDS011;16845;48.670;9.000;2023-02-14T10:42:32;22.92;;;14.23;;
30000;SDS011;16845;48.670;9.000;2023-02-14T10:45:11;19.98;;;15.07;;
30000;SDS011;16845;48.670;9.000;2023-02-14T10:47:46;19.05;;;14.95;;
30000;SDS011;16845;48.670;9.000;2023-02-14T10:50:24;21.25;;;15.82;;
30000;SDS011;16845;48.670;9.000;2023-02-14T10:53:01;20.90;;;14.17;;
30000;SDS011;16845;48.670;9.000;2023-02-14T10:58:08;21.08;;;13.50;;
30000;SDS011;16845;48.670;9.000;2023-02-14T11:00:42;21.00;;;13.75;;
30000;SDS011;16845;48.670;9.000;2023-02-14T11:03:19;21.75;;;15.10;;
30000;SDS011;16845;48.670;9.000;2023-02-14T11:05:50;17.35;;;14.32;;
30000;SDS011;16845;48.670;9.000;2023-02-14T11:08:21;18.23;;;14.20;;
30000;SDS011;16845;48.670;9.000;2023-02-14T11:10:52;21.17;;;14.65;;
30000;SDS011;16845;48.670;9.000;2023-02-14T11:13:32;19.98;;;14.80;;
30000;SDS011;16845;48.670;9.000;2023-02-14T11:16:03;18.00;;;13.30;;
30000;SDS011;16845;48.670;9.000;2023-02-14T11:18:32;17.63;;;13.18;;
30000;SDS011;16845;48.670;9.000;2023-02-14T11:21:04;18.77;;;13.95;;
30000;SDS011;16845;48.670;9.000;2023-02-14T11:23:36;20.02;;;13.60;;
30000;SDS011;16845;48.670;9.000;2023-02-14T11:26:10;16.25;;;12.32;;
30000;SDS011;16845;48.670;9.000;2023-02-14T11:28:50;15.93;;;13.43;;
30000;SDS011;16845;48.670;9.000;2023-02-14T11:31:29;16.67;;;12.30;;
30000;SDS011;16845;48.670;9.000;2023-02-14T11:33:59;15.27;;;13.02;;
30000;SDS011;16845;48.670;9.000;2023-02-14T11:36:31;15.98;;;12.98;;
30000;SDS011;16845;48.670;9.000;2023-02-14T11:39:15;15.57;;;12.48;;
30000;SDS011;16845;48.670;9.000;2023-02-14T11:41:49;18.00;;;12.75;;
30000;SDS011;16845;48.670;9.000;2023-02-14T11:44:18;19.38;;;13.50;;
30000;SDS011;16845;48.670;9.000;2023-02-14T11:46:49;15.50;;;11.93;;
30000;SDS011;16845;48.670;9.000;2023-02-14T11:52:09;15.50;;;12.20;;
30000;SDS011;16845;48.670;9.000;2023-02-14T11:54:46;16.27;;;12.57;;
30000;SDS011;16845;48.670;9.000;2023-02-14T11:57:16;15.82;;;11.95;;
30000;SDS011;16845;48.670;9.000;2023-02-14T11:59:49;14.25;;;11.43;;
30000;SDS011;16845;48.670;9.000;2023-02-14T12:02:21;15.35;;;11.27;;
30000;SDS011;16845;48.670;9.000;2023-02-14T12:04:54;13.50;;;11.05;;
30000;SDS011;16845;48.670;9.000;2023-02-14T12:07:26;13.05;;;10.85;;
30000;SDS011;16845;48.670;9.000;2023-02-14T12:10:05;14.77;;;9.77;;
30000;SDS011;16845;48.670;9.000;2023-02-14T12:12:47;14.50;;;10.52;;
30000;SDS011;16845;48.670;9.000;2023-02-14T12:15:23;18.23;;;10.57;;
30000;SDS011;16845;48.670;9.000;2023-02-14T12:20:30;14.13;;;9.65;;
30000;SDS011;16845;48.670;9.000;2023-02-14T12:23:06;12.85;;;10.68;;
30000;SDS011;16845;48.670;9.000;2023-02-14T12:25:43;15.87;;;9.77;;
30000;SDS011;16845;48.670;9.000;2023-02-14T12:28:17;10.80;;;8.85;;
30000;SDS011;16845;48.670;9.000;2023-02-14T12:30:50;10.50;;;8.40;;
30000;SDS011;16845;48.670;9.000;2023-02-14T12:33:19;11.77;;;8.82;;
30000;SDS011;16845;48.670;9.000;2023-02-14T12:35:50;13.57;;;7.85;;
30000;SDS011;16845;48.670;9.000;2023-02-14T12:41:09;8.43;;;6.13;;
30000;SDS011;16845;48.670;9.000;2023-02-14T12:43:48;7.82;;;6.75;;
30000;SDS011;16845;48.670;9.000;2023-02-14T12:46:20;9.50;;;7.43;;
30000;SDS011;16845;48.670;9.000;2023-02-14T12:49:07;11.88;;;8.27;;
30000;SDS011;16845;48.670;9.000;2023-02-14T12:51:49;11.98;;;7.70;;
30000;SDS011;16845;48.670;9.000;2023-02-14T12:54:34;12.75;;;8.77;;
30000;SDS011;16845;48.670;9.000;2023-02-14T12:57:14;15.40;;;8.82;;
30000;SDS011;16845;48.670;9.000;2023-02-14T12:59:56;14.32;;;9.30;;
30000;SDS011;16845;48.670;9.000;2023-02-14T13:02:51;11.50;;;8.38;;
30000;SDS011;16845;48.670;9.000;2023-02-14T13:05:43;9.15;;;8.18;;
30000;SDS011;16845;48.670;9.000;2023-02-14T13:08:25;10.73;;;8.35;;
30000;SDS011;16845;48.670;9.000;2023-02-14T13:11:05;13.05;;;9.45;;
30000;SDS011;16845;48.670;9.000;2023-02-14T13:13:45;14.45;;;9.52;;
30000;SDS011;16845;48.670;9.000;2023-02-14T13:16:21;11.85;;;8.10;;
30000;SDS011;16845;48.670;9.000;2023-02-14T13:18:55;11.35;;;7.63;;
30000;SDS011;16845;48.670;9.000;2023-02-14T13:21:32;13.15;;;8.38;;
30000;SDS011;16845;48.670;9.000;2023-02-14T13:24:08;10.43;;;7.75;;
30000;SDS011;16845;48.670;9.000;2023-02-14T13:26:43;10.95;;;8.30;;
30000;SDS011;16845;48.670;9.000;2023-02-14T13:29:15;9.88;;;7.07;;
30000;SDS011;16845;48.670;9.000;2023-02-14T13:31:45;11.60;;;8.48;;
30000;SDS011;16845;48.670;9.000;2023-02-14T13:34:17;12.05;;;7.78;;
30000;SDS011;16845;48.670;9.000;2023-02-14T13:36:51;8.13;;;7.05;;
30000;SDS011;16845;48.670;9.000;2023-02-14T13:39:23;12.60;;;7.93;;
30000;SDS011;16845;48.670;9.000;2023-02-14T13:42:00;14.05;;;12.57;;
30000;SDS011;16845;48.670;9.000;2023-02-14T13:44:40;23.42;;;15.73;;
30000;SDS011;16845;48.670;9.000;2023-02-14T13:47:14;24.88;;;16.58;;
30000;SDS011;16845;48.670;9.000;2023-02-14T13:49:45;20.10;;;16.10;;
30000;SDS011;16845;48.670;9.000;2023-02-14T13:55:07;22.92;;;17.58;;
30000;SDS011;16845;48.670;9.000;2023-02-14T13:57:42;24.63;;;17.35;;
30000;SDS011;16845;48.670;9.000;2023-02-14T14:00:20;22.35;;;16.75;;
30000;SDS011;16845;48.670;9.000;2023-02-14T14:03:01;21.33;;;17.63;;
30000;SDS011;16845;48.670;9.000;2023-02-14T14:05:44;25.42;;;18.20;;
30000;SDS011;16845;48.670;9.000;2023-02-14T14:08:34;27.35;;;17.10;;
30000;SDS011;16845;48.670;9.000;2023-02-14T14:11:04;23.13;;;17.35;;
30000;SDS011;16845;48.670;9.000;2023-02-14T14:13:57;28.27;;;17.92;;
30000;SDS011;16845;48.670;9.000;2023-02-14T14:16:28;24.27;;;17.65;;
30000;SDS011;16845;48.670;9.000;2023-02-14T14:18:59;27.92;;;18.23;;
30000;SDS011;16845;48.670;9.000;2023-02-14T14:21:30;31.08;;;18.75;;
30000;SDS011;16845;48.670;9.000;2023-02-14T14:24:11;29.48;;;18.30;;
30000;SDS011;16845;48.670;9.000;2023-02-14T14:26:47;27.13;;;18.25;;
30000;SDS011;16845;48.670;9.000;2023-02-14T14:29:20;24.77;;;17.45;;
30000;SDS011;16845;48.670;9.000;2023-02-14T14:31:51;29.83;;;19.27;;
30000;SDS011;16845;48.670;9.000;2023-02-14T14:34:22;31.05;;;20.23;;
30000;SDS011;16845;48.670;9.000;2023-02-14T14:36:59;27.10;;;19.52;;
30000;SDS011;16845;48.670;9.000;2023-02-14T14:39:29;28.50;;;19.52;;
30000;SDS011;16845;48.670;9.000;2023-02-14T14:42:05;31.75;;;19.67;;
30000;SDS011;16845;48.670;9.000;2023-02-14T14:44:36;27.02;;;18.58;;
30000;SDS011;16845;48.670;9.000;2023-02-14T14:47:13;27.88;;;19.20;;
30000;SDS011;16845;48.670;9.000;2023-02-14T14:49:45;31.77;;;20.45;;
30000;SDS011;16845;48.670;9.000;2023-02-14T14:52:26;36.63;;;19.05;;
30000;SDS011;16845;48.670;9.000;2023-02-14T14:54:58;27.45;;;18.90;;
30000;SDS011;16845;48.670;9.000;2023-02-14T14:57:28;33.05;;;18.90;;
30000;SDS011;16845;48.670;9.000;2023-02-14T15:02:54;30.65;;;18.73;;
30000;SDS011;16845;48.670;9.000;2023-02-14T15:05:28;34.85;;;19.17;;
30000;SDS011;16845;48.670;9.000;2023-02-14T15:08:11;35.63;;;18.95;;
30000;SDS011;16845;48.670;9.000;2023-02-14T15:10:40;30.27;;;19.58;;
30000;SDS011;16845;48.670;9.000;2023-02-14T15:13:09;28.35;;;19.23;;
30000;SDS011;16845;48.670;9.000;2023-02-14T15:15:59;28.70;;;17.77;;
30000;SDS011;16845;48.670;9.000;2023-02-14T15:18:29;29.95;;;18.67;;
30000;SDS011;16845;48.670;9.000;2023-02-14T15:20:57;36.13;;;18.58;;
30000;SDS011;16845;48.670;9.000;2023-02-14T15:23:26;30.02;;;18.95;;
30000;SDS011;16845;48.670;9.000;2023-02-14T15:25:54;30.83;;;19.52;;
30000;SDS011;16845;48.670;9.000;2023-02-14T15:28:26;32.35;;;18.40;;
30000;SDS011;16845;48.670;9.000;2023-02-14T15:30:57;26.58;;;18.27;;